Time;durP1;ratioP1;P1;durP2;ratioP2;P2;SDS_P1;SDS_P2;PMS_P1;PMS_P2;Temp;Humidity;BMP_temperature;BMP_pressure;BME280_temperature;BME280_humidity;BME280_pressure;Samples;Min_cycle;Max_cycle;Signal;HPM_P1;HPM_P2
2022/08/19 00:02:04;;;;;;;29.92;16.25;;;20.80;99.90;;;;;;6334297;28;20294;-66
2022/08/19 00:05:11;;;;;;;26.15;16.08;;;20.70;99.90;;;;;;6312867;28;20290;-66
2022/08/19 00:08:17;;;;;;;25.25;16.33;;;20.80;99.90;;;;;;6312608;28;20290;-66
2022/08/19 00:11:22;;;;;;;33.85;17.73;;;20.90;99.90;;;;;;6305079;28;20259;-66
2022/08/19 00:14:31;;;;;;;34.55;18.85;;;20.80;99.90;;;;;;6312299;28;20298;-66
2022/08/19 00:17:38;;;;;;;34.78;18.40;;;20.80;99.90;;;;;;6312615;28;20447;-66
2022/08/19 00:20:46;;;;;;;29.48;18.15;;;20.80;99.90;;;;;;6311700;28;20466;-66
2022/08/19 00:23:51;;;;;;;30.45;17.70;;;20.80;99.90;;;;;;6312398;28;20302;-66
2022/08/19 00:26:57;;;;;;;31.50;18.05;;;20.70;99.90;;;;;;6312815;28;20270;-66
2022/08/19 00:30:22;;;;;;;30.15;18.00;;;20.70;99.90;;;;;;6311969;28;20290;-67
2022/08/19 00:33:30;;;;;;;28.63;17.50;;;20.70;99.90;;;;;;6311734;28;20593;-67
2022/08/19 00:36:37;;;;;;;27.35;17.88;;;20.80;99.90;;;;;;6311985;28;20270;-66
2022/08/19 00:39:42;;;;;;;26.42;16.83;;;20.80;99.90;;;;;;6311422;28;20428;-66
2022/08/19 00:42:48;;;;;;;30.10;16.60;;;20.80;99.90;;;;;;6312189;28;20274;-66
2022/08/19 00:45:53;;;;;;;29.55;16.60;;;20.90;99.90;;;;;;6311006;28;20278;-66
2022/08/19 00:49:00;;;;;;;28.30;17.25;;;20.90;99.90;;;;;;6311733;28;20294;-65
2022/08/19 00:52:10;;;;;;;25.98;17.08;;;20.90;99.90;;;;;;6312229;28;20275;-67
2022/08/19 00:55:20;;;;;;;30.85;16.17;;;21.00;99.90;;;;;;6303444;28;20298;-67
2022/08/19 00:58:29;;;;;;;26.17;16.77;;;21.00;99.90;;;;;;6311449;28;20301;-66
2022/08/19 01:01:34;;;;;;;31.30;17.75;;;21.00;99.90;;;;;;6311318;28;20275;-66
2022/08/19 01:04:41;;;;;;;29.27;16.92;;;21.00;99.90;;;;;;6311350;28;20482;-66
2022/08/19 01:07:47;;;;;;;28.92;17.17;;;21.00;99.90;;;;;;6312081;28;20275;-66
2022/08/19 01:10:57;;;;;;;27.63;17.25;;;21.00;99.90;;;;;;6310660;28;20274;-66
2022/08/19 01:14:03;;;;;;;27.95;17.40;;;21.00;99.90;;;;;;6310875;28;20303;-65
2022/08/19 01:17:09;;;;;;;25.88;16.80;;;21.00;99.90;;;;;;6311280;28;20274;-65
2022/08/19 01:20:21;;;;;;;32.85;17.88;;;21.00;99.90;;;;;;6311072;28;20294;-66
2022/08/19 01:23:42;;;;;;;30.40;18.33;;;21.10;99.90;;;;;;6310715;28;20294;-65
2022/08/19 01:26:48;;;;;;;34.70;18.27;;;21.10;99.90;;;;;;6310818;28;20274;-66
2022/08/19 01:29:54;;;;;;;27.48;18.30;;;21.10;99.90;;;;;;6310640;28;20293;-66
2022/08/19 01:33:00;;;;;;;27.42;18.40;;;21.20;99.90;;;;;;6310179;28;20266;-67
2022/08/19 01:36:09;;;;;;;37.53;19.27;;;21.20;99.90;;;;;;6310755;28;20438;-66
2022/08/19 01:39:21;;;;;;;27.55;18.40;;;21.20;99.90;;;;;;6310765;28;20294;-67
2022/08/19 01:42:27;;;;;;;27.52;18.45;;;21.20;99.90;;;;;;6311081;28;20271;-67
2022/08/19 01:45:36;;;;;;;28.30;18.67;;;21.20;99.90;;;;;;6310397;28;20297;-67
2022/08/19 01:48:43;;;;;;;30.17;19.35;;;21.30;99.90;;;;;;6309939;28;20294;-66
2022/08/19 01:51:49;;;;;;;32.42;19.88;;;21.20;99.90;;;;;;6311082;28;20446;-67
2022/08/19 01:54:55;;;;;;;37.05;20.30;;;21.20;99.90;;;;;;6310386;28;20303;-66
2022/08/19 01:58:04;;;;;;;30.80;19.98;;;21.20;99.90;;;;;;6310239;28;20275;-67
2022/08/19 02:01:11;;;;;;;29.33;18.90;;;21.20;99.90;;;;;;6310643;28;20267;-66
2022/08/19 02:04:17;;;;;;;33.63;19.10;;;21.20;99.90;;;;;;6309657;28;20297;-67
2022/08/19 02:07:22;;;;;;;34.10;19.88;;;21.10;99.90;;;;;;6310697;28;20270;-67
2022/08/19 02:10:28;;;;;;;33.47;19.10;;;21.10;99.90;;;;;;6307931;28;20299;-66
2022/08/19 02:13:35;;;;;;;36.95;21.23;;;21.10;99.90;;;;;;6304781;28;20297;-66
2022/08/19 02:16:40;;;;;;;29.83;20.45;;;21.10;99.90;;;;;;6310463;28;20450;-67
2022/08/19 02:19:45;;;;;;;34.67;20.10;;;21.10;99.90;;;;;;6310309;28;20301;-67
2022/08/19 02:22:51;;;;;;;36.20;20.13;;;21.10;99.90;;;;;;6309676;28;20270;-67
2022/08/19 02:25:58;;;;;;;32.92;19.77;;;21.10;99.90;;;;;;6310512;28;20270;-66
2022/08/19 02:29:03;;;;;;;29.30;20.23;;;21.20;99.90;;;;;;6309959;28;20617;-64
2022/08/19 02:32:10;;;;;;;32.92;19.33;;;21.20;99.90;;;;;;6309905;28;20558;-67
2022/08/19 02:35:16;;;;;;;32.33;20.27;;;21.20;99.90;;;;;;6309953;28;20298;-66
2022/08/19 02:38:27;;;;;;;31.13;19.33;;;21.20;99.90;;;;;;6308598;28;20310;-67
2022/08/19 02:41:34;;;;;;;30.77;20.17;;;21.20;99.90;;;;;;6309917;28;20263;-66
2022/08/19 02:44:39;;;;;;;29.83;19.95;;;21.10;99.90;;;;;;6310382;28;20294;-66
2022/08/19 02:47:45;;;;;;;29.77;19.48;;;21.10;99.90;;;;;;6314941;28;20270;-66
2022/08/19 02:50:54;;;;;;;37.13;21.20;;;21.10;99.90;;;;;;6314164;28;20270;-66
2022/08/19 02:54:00;;;;;;;26.95;19.48;;;21.10;99.90;;;;;;6314315;28;20598;-66
2022/08/19 02:57:07;;;;;;;35.63;20.83;;;21.10;99.90;;;;;;6314775;28;20274;-66
2022/08/19 03:00:13;;;;;;;32.03;20.48;;;21.00;99.90;;;;;;6312748;28;20614;-66
2022/08/19 03:03:20;;;;;;;31.58;19.67;;;21.10;99.90;;;;;;6322625;28;20298;-67
2022/08/19 03:06:26;;;;;;;35.35;20.90;;;21.00;99.90;;;;;;6339377;28;20289;-66
2022/08/19 03:09:31;;;;;;;35.75;21.17;;;21.10;99.90;;;;;;6339446;28;20298;-66
2022/08/19 03:12:39;;;;;;;27.20;19.45;;;21.00;99.90;;;;;;6339386;28;20294;-66
2022/08/19 03:15:48;;;;;;;32.78;20.10;;;20.90;99.90;;;;;;6339094;28;20293;-66
2022/08/19 03:18:54;;;;;;;36.33;20.23;;;20.90;99.90;;;;;;6338984;28;20286;-66
2022/08/19 03:22:00;;;;;;;33.65;19.80;;;20.90;99.90;;;;;;6339431;28;20435;-66
2022/08/19 03:25:06;;;;;;;34.85;20.23;;;21.00;99.90;;;;;;6338815;28;20274;-66
2022/08/19 03:28:16;;;;;;;35.85;20.40;;;20.90;99.90;;;;;;6339230;28;20314;-66
2022/08/19 03:31:23;;;;;;;35.38;20.40;;;20.90;99.90;;;;;;6339025;28;20270;-66
2022/08/19 03:34:49;;;;;;;38.45;20.58;;;21.00;99.90;;;;;;6338785;28;20298;-66
2022/08/19 03:37:54;;;;;;;35.88;20.83;;;21.00;99.90;;;;;;6338373;28;20302;-66
2022/08/19 03:40:59;;;;;;;37.83;19.80;;;21.10;99.90;;;;;;6337779;28;20281;-66
2022/08/19 03:44:07;;;;;;;28.50;19.25;;;21.10;99.90;;;;;;6338453;28;20298;-67
2022/08/19 03:47:20;;;;;;;29.15;19.85;;;21.10;99.90;;;;;;6338840;28;20273;-66
2022/08/19 03:50:25;;;;;;;26.63;18.13;;;21.10;99.90;;;;;;6338277;28;20270;-66
2022/08/19 03:53:32;;;;;;;30.50;18.92;;;21.10;99.90;;;;;;6337995;28;20487;-66
2022/08/19 03:56:40;;;;;;;28.98;18.73;;;21.10;99.90;;;;;;6338358;28;20289;-66
2022/08/19 03:59:46;;;;;;;65.03;20.30;;;21.10;99.90;;;;;;6338013;28;20297;-66
2022/08/19 04:02:51;;;;;;;35.35;18.80;;;21.10;99.90;;;;;;6338026;28;20483;-66
2022/08/19 04:06:12;;;;;;;31.35;19.83;;;21.10;99.90;;;;;;6338464;28;20273;-66
2022/08/19 04:09:17;;;;;;;30.70;19.42;;;21.10;99.90;;;;;;6338287;28;20294;-67
2022/08/19 04:12:23;;;;;;;32.55;19.90;;;21.10;99.90;;;;;;6337492;28;20266;-66
2022/08/19 04:15:33;;;;;;;34.47;19.73;;;21.10;99.90;;;;;;6338491;28;20294;-66
2022/08/19 04:18:40;;;;;;;33.83;20.08;;;21.20;99.90;;;;;;6337635;28;20313;-65
2022/08/19 04:21:48;;;;;;;28.70;18.60;;;21.20;99.90;;;;;;6337945;28;20270;-66
2022/08/19 04:24:53;;;;;;;36.35;19.73;;;21.20;99.90;;;;;;6337504;28;20293;-66
2022/08/19 04:27:58;;;;;;;33.03;19.75;;;21.20;99.90;;;;;;6337101;28;20297;-66
2022/08/19 04:31:05;;;;;;;33.88;19.08;;;21.20;99.90;;;;;;6338176;28;20267;-66
2022/08/19 04:34:12;;;;;;;31.77;19.73;;;21.20;99.90;;;;;;6337078;28;20298;-65
2022/08/19 04:37:18;;;;;;;30.92;19.92;;;21.20;99.90;;;;;;6336947;28;20285;-66
2022/08/19 04:43:48;;;;;;;37.53;20.60;;;21.10;99.90;;;;;;6336820;28;20294;-66
2022/08/19 04:46:55;;;;;;;31.02;19.63;;;21.10;99.90;;;;;;6337589;28;20553;-67
2022/08/19 04:50:00;;;;;;;33.85;19.40;;;21.20;99.90;;;;;;6337154;28;20298;-66
2022/08/19 04:53:06;;;;;;;29.88;19.88;;;21.10;99.90;;;;;;6336463;28;20310;-66
2022/08/19 04:56:16;;;;;;;37.55;19.45;;;21.20;99.90;;;;;;6337160;28;20581;-66
2022/08/19 04:59:22;;;;;;;32.65;18.55;;;21.20;99.90;;;;;;6351897;28;20289;-66
2022/08/19 05:02:29;;;;;;;33.65;20.63;;;21.20;99.90;;;;;;6336268;28;20574;-65
2022/08/19 05:05:34;;;;;;;35.95;19.63;;;21.20;99.90;;;;;;6336669;28;20270;-65
2022/08/19 05:08:49;;;;;;;33.92;18.60;;;21.20;99.90;;;;;;6335329;28;20613;-66
2022/08/19 05:11:54;;;;;;;34.38;18.55;;;21.30;99.90;;;;;;6331520;28;20261;-66
2022/08/19 05:15:00;;;;;;;30.27;18.92;;;21.30;99.90;;;;;;6335973;28;20336;-66
2022/08/19 05:24:53;;;;;;;41.47;19.13;;;21.40;99.90;;;;;;6335637;28;20294;-67
2022/08/19 05:28:16;;;;;;;38.50;18.35;;;21.30;99.90;;;;;;6335890;28;20297;-66
2022/08/19 05:31:22;;;;;;;29.90;16.98;;;21.30;99.90;;;;;;6336142;28;20458;-67
2022/08/19 05:34:28;;;;;;;29.65;17.95;;;21.50;99.90;;;;;;6335418;28;20481;-65
2022/08/19 05:37:33;;;;;;;33.75;17.42;;;21.50;99.90;;;;;;6335498;28;20306;-67
2022/08/19 05:40:40;;;;;;;24.38;15.90;;;21.60;99.90;;;;;;6336038;28;20269;-67
2022/08/19 05:43:46;;;;;;;26.42;15.82;;;21.60;99.90;;;;;;6335554;28;20289;-67
2022/08/19 05:46:53;;;;;;;20.60;14.63;;;21.70;99.90;;;;;;6335779;28;20294;-66
2022/08/19 05:50:01;;;;;;;20.02;14.80;;;21.70;99.90;;;;;;6334683;28;20581;-65
2022/08/19 05:53:09;;;;;;;21.13;14.73;;;21.80;99.90;;;;;;6334914;28;20589;-66
2022/08/19 05:56:17;;;;;;;21.13;14.65;;;21.80;99.90;;;;;;6334602;28;20265;-66
2022/08/19 05:59:23;;;;;;;24.92;14.82;;;21.90;99.90;;;;;;6335116;28;20297;-67
2022/08/19 06:02:30;;;;;;;20.83;14.68;;;21.80;99.90;;;;;;6328783;28;20429;-67
2022/08/19 06:05:37;;;;;;;22.05;15.35;;;21.80;99.90;;;;;;6310083;28;20266;-67
2022/08/19 06:08:56;;;;;;;22.55;14.90;;;21.80;99.90;;;;;;6309507;28;20307;-67
2022/08/19 06:12:02;;;;;;;23.80;15.15;;;21.90;99.90;;;;;;6304846;28;20262;-66
2022/08/19 06:15:11;;;;;;;20.17;15.55;;;21.90;99.90;;;;;;6309607;28;20282;-66
2022/08/19 06:18:19;;;;;;;25.02;14.68;;;21.90;99.90;;;;;;6310106;28;20306;-66
2022/08/19 06:21:29;;;;;;;21.33;14.55;;;21.90;99.90;;;;;;6314130;28;20266;-66
2022/08/19 06:24:35;;;;;;;18.38;14.20;;;22.00;99.90;;;;;;6314821;28;20298;-67
2022/08/19 06:27:41;;;;;;;18.98;14.00;;;22.10;99.90;;;;;;6296731;28;20298;-67
2022/08/19 06:31:08;;;;;;;26.17;13.98;;;22.20;99.90;;;;;;6314988;28;20345;-67
2022/08/19 06:34:14;;;;;;;20.33;13.45;;;22.40;99.90;;;;;;6306711;28;20318;-67
2022/08/19 06:37:21;;;;;;;24.83;12.05;;;22.50;99.90;;;;;;6314506;28;20289;-67
2022/08/19 06:40:27;;;;;;;17.95;12.80;;;22.60;99.90;;;;;;6314465;28;20270;-67
2022/08/19 06:43:32;;;;;;;15.57;11.50;;;22.80;99.90;;;;;;6314219;28;20605;-67
2022/08/19 06:46:38;;;;;;;18.02;11.40;;;22.90;99.90;;;;;;6314344;28;20274;-67
2022/08/19 06:49:44;;;;;;;13.38;10.43;;;23.10;99.90;;;;;;6314137;28;20302;-66
2022/08/19 06:52:50;;;;;;;18.05;9.90;;;23.30;99.90;;;;;;6314198;28;20290;-67
2022/08/19 06:56:00;;;;;;;32.00;10.35;;;23.50;99.90;;;;;;6314559;28;20270;-67
2022/08/19 06:59:07;;;;;;;33.53;9.80;;;23.60;99.90;;;;;;6313689;28;20520;-66
2022/08/19 07:02:13;;;;;;;19.17;8.77;;;23.70;99.90;;;;;;6316479;28;20309;-67
2022/08/19 07:05:19;;;;;;;22.15;8.98;;;23.80;99.90;;;;;;6339686;28;20273;-66
2022/08/19 07:08:26;;;;;;;11.82;8.38;;;23.90;99.90;;;;;;6338439;28;20310;-67
2022/08/19 07:11:33;;;;;;;16.33;8.80;;;24.00;99.90;;;;;;6333589;28;20266;-67
2022/08/19 07:14:40;;;;;;;15.70;8.50;;;24.20;99.90;;;;;;6338826;28;20293;-67
2022/08/19 07:17:45;;;;;;;16.08;8.77;;;24.30;99.90;;;;;;6338569;28;20601;-67
2022/08/19 07:21:05;;;;;;;18.77;8.65;;;24.30;99.90;;;;;;6339332;28;20273;-66
2022/08/19 07:24:15;;;;;;;14.02;8.40;;;24.50;99.90;;;;;;6338567;28;20298;-65
2022/08/19 07:27:20;;;;;;;14.65;7.85;;;24.60;99.90;;;;;;6338297;28;20266;-66
2022/08/19 07:30:29;;;;;;;16.75;8.65;;;24.70;99.90;;;;;;6338131;28;20274;-67
2022/08/19 07:33:36;;;;;;;15.75;7.97;;;24.80;99.90;;;;;;6338430;28;20297;-66
2022/08/19 07:36:43;;;;;;;18.92;8.25;;;24.80;99.90;;;;;;6338756;28;20577;-67
2022/08/19 07:39:50;;;;;;;14.82;8.00;;;24.90;99.90;;;;;;6338042;28;20298;-66
2022/08/19 07:42:55;;;;;;;9.88;7.43;;;24.90;99.90;;;;;;6336985;28;20376;-67
2022/08/19 07:46:01;;;;;;;13.55;7.30;;;24.90;99.90;;;;;;6338113;28;20457;-66
2022/08/19 07:49:08;;;;;;;9.48;7.38;;;24.90;99.90;;;;;;6338191;28;20297;-66
2022/08/19 07:52:13;;;;;;;10.40;7.88;;;25.00;99.90;;;;;;6337828;28;20265;-66
2022/08/19 07:55:23;;;;;;;13.75;7.07;;;25.00;99.90;;;;;;6337995;28;20569;-66
2022/08/19 07:58:50;;;;;;;14.48;7.50;;;25.00;99.90;;;;;;6337316;28;20322;-66
2022/08/19 08:01:56;;;;;;;12.05;7.10;;;25.10;99.90;;;;;;6337462;28;20290;-66
2022/08/19 08:11:56;;;;;;;13.30;7.53;;;25.10;99.90;;;;;;6307467;28;20267;-66
2022/08/19 08:15:11;;;;;;;12.48;7.28;;;25.10;99.90;;;;;;6312241;28;20439;-67
2022/08/19 08:18:18;;;;;;;17.73;7.28;;;25.10;99.90;;;;;;6312221;28;20296;-66
2022/08/19 08:21:23;;;;;;;10.43;7.13;;;25.20;99.90;;;;;;6312436;28;20275;-66
2022/08/19 08:24:31;;;;;;;14.98;6.97;;;25.20;99.90;;;;;;6294743;28;20294;-66
2022/08/19 08:27:40;;;;;;;11.98;7.82;;;25.20;99.90;;;;;;6312023;28;20298;-65
2022/08/19 08:30:47;;;;;;;17.02;6.93;;;25.30;99.90;;;;;;6311758;28;20274;-65
2022/08/19 08:33:53;;;;;;;8.65;7.07;;;25.20;99.90;;;;;;6311477;28;20294;-65
2022/08/19 08:36:58;;;;;;;11.57;6.93;;;25.20;99.90;;;;;;6312260;28;20266;-66
2022/08/19 08:40:06;;;;;;;9.60;6.32;;;25.30;99.90;;;;;;6311227;28;20337;-66
2022/08/19 08:43:26;;;;;;;7.95;6.50;;;25.30;99.90;;;;;;6310381;28;20294;-66
2022/08/19 08:46:40;;;;;;;8.38;7.57;;;25.30;99.90;;;;;;6312172;28;20271;-66
2022/08/19 08:49:51;;;;;;;12.57;6.20;;;25.30;99.90;;;;;;6311057;28;20483;-66
2022/08/19 08:52:58;;;;;;;13.55;6.53;;;25.40;99.90;;;;;;6311352;28;20618;-65
2022/08/19 08:56:05;;;;;;;8.32;6.47;;;25.40;99.90;;;;;;6311351;28;20266;-66
2022/08/19 08:59:26;;;;;;;11.25;6.68;;;25.40;99.90;;;;;;6310820;28;20303;-66
2022/08/19 09:02:31;;;;;;;13.90;6.35;;;25.40;99.90;;;;;;6313774;28;20303;-66
2022/08/19 09:05:46;;;;;;;10.55;6.53;;;25.40;99.90;;;;;;6336360;28;20269;-66
2022/08/19 09:09:04;;;;;;;8.77;6.93;;;25.50;99.90;;;;;;6335921;28;20298;-66
2022/08/19 09:12:24;;;;;;;7.18;6.57;;;25.50;99.90;;;;;;6330921;28;20520;-64
2022/08/19 09:15:35;;;;;;;10.82;6.43;;;25.60;99.90;;;;;;6336305;28;20541;-66
2022/08/19 09:18:43;;;;;;;8.93;7.38;;;25.60;99.90;;;;;;6335827;28;20298;-65
2022/08/19 09:21:50;;;;;;;12.63;6.90;;;25.60;99.90;;;;;;6335624;28;20294;-65
2022/08/19 09:24:56;;;;;;;8.70;6.75;;;25.60;99.90;;;;;;6335762;28;20297;-66
2022/08/19 09:28:03;;;;;;;10.45;6.50;;;25.60;99.90;;;;;;6335788;28;20289;-66
2022/08/19 09:31:30;;;;;;;14.57;6.90;;;25.70;99.90;;;;;;6336257;28;20274;-67
2022/08/19 09:34:35;;;;;;;9.73;6.30;;;25.70;99.90;;;;;;6335474;28;20301;-66
2022/08/19 09:37:48;;;;;;;11.82;6.35;;;25.80;99.90;;;;;;6335422;28;20308;-66
2022/08/19 09:41:05;;;;;;;13.82;6.80;;;25.80;99.90;;;;;;6336104;28;20293;-67
2022/08/19 09:44:12;;;;;;;16.45;6.38;;;25.70;99.90;;;;;;6335465;28;20293;-66
2022/08/19 09:47:19;;;;;;;11.45;6.80;;;25.80;99.90;;;;;;6335513;28;20270;-66
2022/08/19 09:50:27;;;;;;;10.15;6.78;;;25.90;99.90;;;;;;6335560;28;20282;-67
2022/08/19 09:53:32;;;;;;;12.60;6.47;;;25.90;99.90;;;;;;6334604;28;20669;-67
2022/08/19 09:56:38;;;;;;;15.40;6.70;;;26.00;99.90;;;;;;6335158;28;20270;-66
2022/08/19 09:59:46;;;;;;;12.38;6.32;;;26.10;99.90;;;;;;6335070;28;20293;-66
2022/08/19 10:02:52;;;;;;;9.85;6.40;;;26.20;99.90;;;;;;6328291;28;20303;-66
2022/08/19 10:06:02;;;;;;;11.52;6.72;;;26.30;99.90;;;;;;6310502;28;20203;-66
2022/08/19 10:09:09;;;;;;;14.15;6.80;;;26.40;99.90;;;;;;6309721;28;20294;-67
2022/08/19 10:12:15;;;;;;;11.07;6.57;;;26.50;99.90;;;;;;6303915;28;20279;-67
2022/08/19 10:15:24;;;;;;;17.05;6.60;;;26.50;99.90;;;;;;6309666;28;20428;-66
2022/08/19 10:18:35;;;;;;;11.55;6.38;;;26.50;99.90;;;;;;6309084;28;20294;-66
2022/08/19 10:21:41;;;;;;;11.23;6.28;;;26.60;99.90;;;;;;6309704;28;20286;-65
2022/08/19 10:24:47;;;;;;;11.68;6.55;;;26.70;99.90;;;;;;6309455;28;20290;-67
2022/08/19 10:27:52;;;;;;;6.80;6.20;;;26.70;99.90;;;;;;6309153;28;20448;-67
2022/08/19 10:31:06;;;;;;;11.73;6.40;;;26.70;99.90;;;;;;6309847;28;20498;-67
2022/08/19 10:34:14;;;;;;;9.60;6.43;;;26.70;99.90;;;;;;6309505;28;20294;-66
2022/08/19 10:37:32;;;;;;;22.33;6.80;;;26.90;99.90;;;;;;6309396;28;20294;-66
2022/08/19 10:40:39;;;;;;;7.53;6.25;;;27.00;99.90;;;;;;6309945;28;20286;-66
2022/08/19 10:43:46;;;;;;;9.20;6.47;;;27.00;99.90;;;;;;6309297;28;20294;-66
2022/08/19 10:46:51;;;;;;;11.25;6.38;;;27.00;99.90;;;;;;6309913;28;20574;-66
2022/08/19 10:53:25;;;;;;;6.65;6.00;;;27.20;99.30;;;;;;6309012;28;20299;-66
2022/08/19 10:59:54;;;;;;;6.32;5.90;;;27.40;98.60;;;;;;6308978;28;20299;-66
2022/08/19 11:02:59;;;;;;;12.20;5.88;;;27.50;97.90;;;;;;6315647;28;20302;-67
2022/08/19 11:06:09;;;;;;;9.82;5.88;;;27.60;98.50;;;;;;6336158;28;20274;-66
2022/08/19 11:09:15;;;;;;;11.82;5.97;;;27.70;98.00;;;;;;6339171;28;20294;-66
2022/08/19 11:12:21;;;;;;;16.27;5.40;;;27.80;96.80;;;;;;6333380;28;20266;-67
2022/08/19 11:15:28;;;;;;;16.25;6.40;;;27.90;96.80;;;;;;6339410;28;20274;-65
2022/08/19 11:18:34;;;;;;;9.68;5.72;;;28.00;96.60;;;;;;6338313;28;20564;-66
2022/08/19 11:21:42;;;;;;;10.35;5.80;;;28.10;96.20;;;;;;6339158;28;20293;-65
2022/08/19 11:24:48;;;;;;;16.83;6.07;;;28.10;96.20;;;;;;6338246;28;20585;-66
2022/08/19 11:27:53;;;;;;;10.55;5.93;;;28.20;95.40;;;;;;6338661;28;20293;-66
2022/08/19 11:30:58;;;;;;;13.30;6.30;;;28.20;95.90;;;;;;6338942;28;20282;-66
2022/08/19 11:34:06;;;;;;;14.60;6.22;;;28.30;96.40;;;;;;6338300;28;20324;-66
2022/08/19 11:37:14;;;;;;;13.10;6.20;;;28.30;95.60;;;;;;6338475;28;20440;-66
2022/08/19 11:40:19;;;;;;;11.35;5.97;;;28.50;95.60;;;;;;6338937;28;20275;-66
2022/08/19 11:43:26;;;;;;;12.38;6.35;;;28.40;95.90;;;;;;6337747;28;20483;-65
2022/08/19 11:46:31;;;;;;;9.55;6.00;;;28.50;95.00;;;;;;6338061;28;20265;-65
2022/08/19 11:49:37;;;;;;;6.57;5.65;;;28.60;95.50;;;;;;6337726;28;20333;-66
2022/08/19 11:52:44;;;;;;;6.50;5.90;;;28.70;94.20;;;;;;6337748;28;20302;-66
2022/08/19 11:55:50;;;;;;;6.05;5.43;;;28.70;93.10;;;;;;6338028;28;20318;-66
2022/08/19 11:58:57;;;;;;;9.15;6.05;;;28.70;94.00;;;;;;6337279;28;20293;-66
2022/08/19 12:02:02;;;;;;;5.70;5.30;;;28.80;95.40;;;;;;6338441;28;20474;-67
2022/08/19 12:05:08;;;;;;;6.88;5.80;;;28.80;93.70;;;;;;6311949;28;20434;-66
2022/08/19 12:08:19;;;;;;;7.20;5.60;;;28.80;92.60;;;;;;6312551;28;20291;-67
2022/08/19 12:11:25;;;;;;;7.72;5.80;;;28.80;92.40;;;;;;6312970;28;20282;-67
2022/08/19 12:14:31;;;;;;;7.38;5.15;;;28.90;92.70;;;;;;6312670;28;20296;-68
2022/08/19 12:17:37;;;;;;;6.75;5.28;;;28.90;91.60;;;;;;6311839;28;20614;-66
2022/08/19 12:20:45;;;;;;;9.80;5.10;;;28.90;91.80;;;;;;6312557;28;20573;-66
2022/08/19 12:23:52;;;;;;;8.05;5.25;;;28.90;92.00;;;;;;6311711;28;20315;-66
2022/08/19 12:27:01;;;;;;;7.20;5.32;;;28.90;92.00;;;;;;6312486;28;20298;-66
2022/08/19 12:30:11;;;;;;;7.65;5.32;;;29.00;92.20;;;;;;6311099;28;20274;-67
2022/08/19 12:33:18;;;;;;;11.20;5.50;;;28.90;91.30;;;;;;6311228;28;20302;-66
2022/08/19 12:36:24;;;;;;;7.13;5.63;;;29.00;90.70;;;;;;6311844;28;20290;-67
2022/08/19 12:39:34;;;;;;;8.18;5.28;;;29.00;91.70;;;;;;6311461;28;20490;-66
2022/08/19 12:42:41;;;;;;;9.05;5.30;;;29.10;91.30;;;;;;6311043;28;20298;-65
2022/08/19 12:45:47;;;;;;;13.00;5.55;;;29.20;91.10;;;;;;6312013;28;20275;-66
2022/08/19 12:48:54;;;;;;;14.90;5.25;;;29.20;90.90;;;;;;6311197;28;20294;-66
2022/08/19 12:52:00;;;;;;;9.43;5.43;;;29.30;89.90;;;;;;6311509;28;20274;-66
2022/08/19 12:55:10;;;;;;;6.88;5.18;;;29.30;89.70;;;;;;6310654;28;20275;-66
2022/08/19 12:58:16;;;;;;;7.93;5.75;;;29.20;89.90;;;;;;6310694;28;20615;-66
2022/08/19 13:01:21;;;;;;;6.32;5.70;;;29.20;90.10;;;;;;6311434;28;20455;-66
2022/08/19 13:04:27;;;;;;;7.45;5.80;;;29.40;90.10;;;;;;6329721;28;20489;-66
2022/08/19 13:07:33;;;;;;;7.10;6.30;;;29.40;90.20;;;;;;6336222;28;20564;-67
2022/08/19 13:10:40;;;;;;;9.00;5.93;;;29.30;90.70;;;;;;6335890;28;20262;-66
2022/08/19 13:13:48;;;;;;;11.65;5.75;;;29.40;91.20;;;;;;6335978;28;20301;-64
2022/08/19 13:16:53;;;;;;;13.95;6.20;;;29.40;90.60;;;;;;6336442;28;20297;-66
2022/08/19 13:19:58;;;;;;;13.10;6.18;;;29.40;91.10;;;;;;6335428;28;20298;-66
2022/08/19 13:23:04;;;;;;;11.15;6.68;;;29.30;91.50;;;;;;6335659;28;20577;-67
2022/08/19 13:26:12;;;;;;;11.10;6.38;;;29.30;91.60;;;;;;6336049;28;20278;-66
2022/08/19 13:36:07;;;;;;;13.85;6.68;;;29.10;93.00;;;;;;6335448;28;20457;-66
2022/08/19 13:39:12;;;;;;;12.15;6.13;;;29.00;94.20;;;;;;6335224;28;20293;-66
2022/08/19 13:42:19;;;;;;;13.95;6.78;;;29.00;92.60;;;;;;6335172;28;20351;-66
2022/08/19 13:45:27;;;;;;;12.57;6.80;;;28.90;93.20;;;;;;6335760;28;20293;-66
2022/08/19 13:48:32;;;;;;;14.98;7.00;;;29.00;93.50;;;;;;6334282;28;20466;-66
2022/08/19 13:51:39;;;;;;;13.80;6.35;;;29.10;93.80;;;;;;6335545;28;20325;-67
2022/08/19 13:54:46;;;;;;;14.10;6.72;;;29.10;93.20;;;;;;6335212;28;20298;-66
2022/08/19 13:57:53;;;;;;;9.85;6.50;;;29.10;93.00;;;;;;6334947;28;20471;-67
2022/08/19 14:01:00;;;;;;;12.50;6.55;;;29.10;93.60;;;;;;6335651;28;20265;-66
2022/08/19 14:04:06;;;;;;;11.52;6.32;;;29.10;93.40;;;;;;6318541;28;20464;-67
2022/08/19 14:07:11;;;;;;;10.40;5.80;;;29.10;92.60;;;;;;6309818;28;20274;-67
2022/08/19 14:10:18;;;;;;;16.40;7.05;;;29.10;92.80;;;;;;6309963;28;20262;-66
2022/08/19 14:13:25;;;;;;;14.77;6.47;;;29.00;93.30;;;;;;6309457;28;20302;-67
2022/08/19 14:16:31;;;;;;;17.80;7.30;;;29.10;93.10;;;;;;6309689;28;20447;-66
2022/08/19 14:19:37;;;;;;;9.75;6.35;;;29.10;92.40;;;;;;6309828;28;20470;-67
2022/08/19 14:22:46;;;;;;;18.35;6.82;;;29.00;93.90;;;;;;6309484;28;20306;-67
2022/08/19 14:25:51;;;;;;;23.23;7.40;;;28.90;93.80;;;;;;6309330;28;20289;-66
2022/08/19 14:28:58;;;;;;;8.65;6.40;;;28.90;94.30;;;;;;6309239;28;20298;-66
2022/08/19 14:32:04;;;;;;;14.52;7.07;;;28.90;94.40;;;;;;6309583;28;20271;-66
2022/08/19 14:35:13;;;;;;;15.65;6.45;;;28.70;94.40;;;;;;6309067;28;20283;-66
2022/08/19 14:38:20;;;;;;;12.98;7.10;;;28.60;94.80;;;;;;6309411;28;20293;-66
2022/08/19 14:41:37;;;;;;;10.77;7.00;;;28.50;94.90;;;;;;6313642;28;20294;-66
2022/08/19 14:44:44;;;;;;;11.13;7.30;;;28.40;95.10;;;;;;6314315;28;20476;-66
2022/08/19 14:47:49;;;;;;;17.67;7.07;;;28.40;95.20;;;;;;6314269;28;20450;-65
2022/08/19 14:50:55;;;;;;;8.48;7.03;;;28.30;95.30;;;;;;6313861;28;20271;-67
2022/08/19 14:54:00;;;;;;;14.13;6.88;;;28.20;95.60;;;;;;6313741;28;20302;-66
2022/08/19 14:57:05;;;;;;;12.90;6.75;;;28.20;95.70;;;;;;6313542;28;20554;-67
2022/08/19 15:00:16;;;;;;;13.18;7.18;;;28.20;95.70;;;;;;6314406;28;20275;-66
2022/08/19 15:03:21;;;;;;;9.02;6.85;;;28.20;95.70;;;;;;6323712;28;20480;-67
2022/08/19 15:06:28;;;;;;;8.38;7.07;;;28.20;96.00;;;;;;6339255;28;20294;-67
2022/08/19 15:09:33;;;;;;;13.02;7.28;;;28.20;96.20;;;;;;6337414;28;20612;-67
2022/08/19 15:12:42;;;;;;;13.43;7.53;;;28.20;96.40;;;;;;6308910;28;20294;-67
2022/08/19 15:15:48;;;;;;;15.73;7.18;;;28.30;96.10;;;;;;6314375;28;20271;-66
2022/08/19 15:18:56;;;;;;;14.88;7.03;;;28.30;96.10;;;;;;6314082;28;20374;-67
2022/08/19 15:22:02;;;;;;;9.98;6.63;;;28.30;95.30;;;;;;6313493;28;20298;-67
2022/08/19 15:25:11;;;;;;;7.32;6.63;;;28.30;95.10;;;;;;6313639;28;20294;-66
2022/08/19 15:28:16;;;;;;;9.70;6.95;;;28.10;94.80;;;;;;6313633;28;20477;-65
2022/08/19 15:31:23;;;;;;;13.30;7.05;;;28.10;95.10;;;;;;6313224;28;20270;-63
2022/08/19 15:34:32;;;;;;;8.15;6.72;;;28.00;95.30;;;;;;6313267;28;20302;-65
2022/08/19 15:37:38;;;;;;;12.75;6.75;;;28.10;95.10;;;;;;6313566;28;20299;-65
2022/08/19 15:40:44;;;;;;;16.15;7.57;;;28.00;95.00;;;;;;6314032;28;20577;-66
2022/08/19 15:43:51;;;;;;;14.93;7.13;;;28.00;95.00;;;;;;6313033;28;20299;-66
2022/08/19 15:46:57;;;;;;;10.15;7.30;;;27.90;95.20;;;;;;6313478;28;20294;-67
2022/08/19 15:50:07;;;;;;;16.13;7.60;;;27.80;96.00;;;;;;6312909;28;20293;-66
2022/08/19 15:53:16;;;;;;;13.40;7.82;;;27.90;96.40;;;;;;6311974;28;20632;-67
2022/08/19 15:56:22;;;;;;;14.80;7.82;;;27.70;96.50;;;;;;6312753;28;20290;-66
2022/08/19 16:06:28;;;;;;;16.30;7.82;;;27.60;97.20;;;;;;6312564;28;20482;-66
2022/08/19 16:09:35;;;;;;;21.20;7.88;;;27.50;97.40;;;;;;6313010;28;20275;-68
2022/08/19 16:12:41;;;;;;;14.85;7.93;;;27.50;97.70;;;;;;6337584;28;20293;-66
2022/08/19 16:15:46;;;;;;;15.10;8.23;;;27.40;98.20;;;;;;6338214;28;20269;-67
2022/08/19 16:18:53;;;;;;;14.35;7.57;;;27.30;98.20;;;;;;6337439;28;20298;-69
2022/08/19 16:21:58;;;;;;;9.85;7.85;;;27.30;98.30;;;;;;6337244;28;20365;-68
2022/08/19 16:25:06;;;;;;;15.20;7.50;;;27.30;98.30;;;;;;6337847;28;20290;-68
2022/08/19 16:28:12;;;;;;;10.15;7.72;;;27.30;98.40;;;;;;6336821;28;20293;-66
2022/08/19 16:31:18;;;;;;;11.20;7.82;;;27.20;98.50;;;;;;6336943;28;20294;-68
2022/08/19 16:34:25;;;;;;;12.57;7.90;;;27.20;98.80;;;;;;6337340;28;20266;-66
2022/08/19 16:37:30;;;;;;;10.45;8.30;;;27.20;99.00;;;;;;6337158;28;20302;-66
2022/08/19 16:40:35;;;;;;;16.88;8.68;;;27.20;99.40;;;;;;6336809;28;20269;-66